sensor_id;sensor_type;location;lat;lon;timestamp;temperature;humidity
23748;DHT22;12054;53.662;10.126;2023-07-13T00:00:13;19.10;99.90
23748;DHT22;12054;53.662;10.126;2023-07-13T00:02:42;19.10;99.90
23748;DHT22;12054;53.662;10.126;2023-07-13T00:05:07;19.10;99.90
23748;DHT22;12054;53.662;10.126;2023-07-13T00:07:34;19.10;99.90
23748;DHT22;12054;53.662;10.126;2023-07-13T00:10:00;19.10;99.90
23748;DHT22;12054;53.662;10.126;2023-07-13T00:12:32;19.10;99.90
23748;DHT22;12054;53.662;10.126;2023-07-13T00:15:00;19.10;99.90
23748;DHT22;12054;53.662;10.126;2023-07-13T00:17:27;19.00;99.90
23748;DHT22;12054;53.662;10.126;2023-07-13T00:19:54;19.00;99.90
23748;DHT22;12054;53.662;10.126;2023-07-13T00:22:21;19.00;99.90
23748;DHT22;12054;53.662;10.126;2023-07-13T00:24:47;19.00;99.90
23748;DHT22;12054;53.662;10.126;2023-07-13T00:27:12;19.00;99.90
23748;DHT22;12054;53.662;10.126;2023-07-13T00:29:38;19.00;99.90
23748;DHT22;12054;53.662;10.126;2023-07-13T00:32:05;18.90;99.90
23748;DHT22;12054;53.662;10.126;2023-07-13T00:34:32;18.90;99.90
23748;DHT22;12054;53.662;10.126;2023-07-13T00:36:58;18.90;99.90
23748;DHT22;12054;53.662;10.126;2023-07-13T00:39:24;18.90;99.90
23748;DHT22;12054;53.662;10.126;2023-07-13T00:41:50;18.80;99.90
23748;DHT22;12054;53.662;10.126;2023-07-13T00:44:17;18.80;99.90
23748;DHT22;12054;53.662;10.126;2023-07-13T00:46:43;18.80;99.90
23748;DHT22;12054;53.662;10.126;2023-07-13T00:49:12;18.80;99.90
23748;DHT22;12054;53.662;10.126;2023-07-13T00:51:48;18.80;99.90
23748;DHT22;12054;53.662;10.126;2023-07-13T00:54:19;18.70;99.90
23748;DHT22;12054;53.662;10.126;2023-07-13T00:56:48;18.70;99.90
23748;DHT22;12054;53.662;10.126;2023-07-13T00:59:16;18.70;99.90
23748;DHT22;12054;53.662;10.126;2023-07-13T01:01:44;18.70;99.90
23748;DHT22;12054;53.662;10.126;2023-07-13T01:04:10;18.60;99.90
23748;DHT22;12054;53.662;10.126;2023-07-13T01:06:37;18.60;99.90
23748;DHT22;12054;53.662;10.126;2023-07-13T01:09:04;18.60;99.90
23748;DHT22;12054;53.662;10.126;2023-07-13T01:11:30;18.50;99.90
23748;DHT22;12054;53.662;10.126;2023-07-13T01:13:56;18.50;99.90
23748;DHT22;12054;53.662;10.126;2023-07-13T01:16:27;18.50;99.90
23748;DHT22;12054;53.662;10.126;2023-07-13T01:18:54;18.50;99.90
23748;DHT22;12054;53.662;10.126;2023-07-13T01:21:19;18.50;99.90
23748;DHT22;12054;53.662;10.126;2023-07-13T01:23:45;18.40;99.90
23748;DHT22;12054;53.662;10.126;2023-07-13T01:26:11;18.40;99.90
23748;DHT22;12054;53.662;10.126;2023-07-13T01:28:37;18.40;99.90
23748;DHT22;12054;53.662;10.126;2023-07-13T01:31:03;18.40;99.90
23748;DHT22;12054;53.662;10.126;2023-07-13T01:33:29;18.30;99.90
23748;DHT22;12054;53.662;10.126;2023-07-13T01:35:54;18.30;99.90
23748;DHT22;12054;53.662;10.126;2023-07-13T01:38:23;18.30;99.90
23748;DHT22;12054;53.662;10.126;2023-07-13T01:40:50;18.20;99.90
23748;DHT22;12054;53.662;10.126;2023-07-13T01:43:17;18.20;99.90
23748;DHT22;12054;53.662;10.126;2023-07-13T01:45:42;18.20;99.90
23748;DHT22;12054;53.662;10.126;2023-07-13T01:48:09;18.20;99.90
23748;DHT22;12054;53.662;10.126;2023-07-13T01:50:35;18.10;99.90
23748;DHT22;12054;53.662;10.126;2023-07-13T01:53:01;18.10;99.90
23748;DHT22;12054;53.662;10.126;2023-07-13T01:55:28;18.10;99.90
23748;DHT22;12054;53.662;10.126;2023-07-13T01:57:53;18.00;99.90
23748;DHT22;12054;53.662;10.126;2023-07-13T02:00:19;18.00;99.90
23748;DHT22;12054;53.662;10.126;2023-07-13T02:02:44;18.00;99.90
23748;DHT22;12054;53.662;10.126;2023-07-13T02:05:11;17.90;99.90
23748;DHT22;12054;53.662;10.126;2023-07-13T02:07:37;17.90;99.90
23748;DHT22;12054;53.662;10.126;2023-07-13T02:10:03;17.90;99.90
23748;DHT22;12054;53.662;10.126;2023-07-13T02:12:29;17.80;99.90
23748;DHT22;12054;53.662;10.126;2023-07-13T02:14:54;17.80;99.90
23748;DHT22;12054;53.662;10.126;2023-07-13T02:17:20;17.80;99.90
23748;DHT22;12054;53.662;10.126;2023-07-13T02:19:45;17.80;99.90
23748;DHT22;12054;53.662;10.126;2023-07-13T02:22:11;17.80;99.90
23748;DHT22;12054;53.662;10.126;2023-07-13T02:24:36;17.80;99.90
23748;DHT22;12054;53.662;10.126;2023-07-13T02:27:03;17.70;99.90
23748;DHT22;12054;53.662;10.126;2023-07-13T02:29:29;17.70;99.90
23748;DHT22;12054;53.662;10.126;2023-07-13T02:31:55;17.70;99.90
23748;DHT22;12054;53.662;10.126;2023-07-13T02:34:20;17.70;99.90
23748;DHT22;12054;53.662;10.126;2023-07-13T02:36:46;17.70;99.90
23748;DHT22;12054;53.662;10.126;2023-07-13T02:39:13;17.60;99.90
23748;DHT22;12054;53.662;10.126;2023-07-13T02:41:38;17.60;99.90
23748;DHT22;12054;53.662;10.126;2023-07-13T02:44:04;17.60;99.90
23748;DHT22;12054;53.662;10.126;2023-07-13T02:46:31;17.60;99.90
23748;DHT22;12054;53.662;10.126;2023-07-13T02:48:56;17.60;99.90
23748;DHT22;12054;53.662;10.126;2023-07-13T02:51:22;17.50;99.90
23748;DHT22;12054;53.662;10.126;2023-07-13T02:53:47;17.50;99.90
23748;DHT22;12054;53.662;10.126;2023-07-13T02:56:13;17.50;99.90
23748;DHT22;12054;53.662;10.126;2023-07-13T02:58:38;17.50;99.90
23748;DHT22;12054;53.662;10.126;2023-07-13T03:01:12;17.40;99.90
23748;DHT22;12054;53.662;10.126;2023-07-13T03:03:38;17.40;99.90
23748;DHT22;12054;53.662;10.126;2023-07-13T03:06:05;17.40;99.90
23748;DHT22;12054;53.662;10.126;2023-07-13T03:08:32;17.40;99.90
23748;DHT22;12054;53.662;10.126;2023-07-13T03:11:10;17.30;99.90
23748;DHT22;12054;53.662;10.126;2023-07-13T03:13:40;17.30;99.90
23748;DHT22;12054;53.662;10.126;2023-07-13T03:16:06;17.30;99.90
23748;DHT22;12054;53.662;10.126;2023-07-13T03:18:32;17.30;99.90
23748;DHT22;12054;53.662;10.126;2023-07-13T03:20:58;17.20;99.90
23748;DHT22;12054;53.662;10.126;2023-07-13T03:23:24;17.20;99.90
23748;DHT22;12054;53.662;10.126;2023-07-13T03:25:50;17.20;99.90
23748;DHT22;12054;53.662;10.126;2023-07-13T03:28:15;17.20;99.90
23748;DHT22;12054;53.662;10.126;2023-07-13T03:30:41;17.10;99.90
23748;DHT22;12054;53.662;10.126;2023-07-13T03:33:07;17.10;99.90
23748;DHT22;12054;53.662;10.126;2023-07-13T03:35:34;17.10;99.90
23748;DHT22;12054;53.662;10.126;2023-07-13T03:38:00;17.10;99.90
23748;DHT22;12054;53.662;10.126;2023-07-13T03:40:26;17.10;99.90
23748;DHT22;12054;53.662;10.126;2023-07-13T03:42:52;17.10;99.90
23748;DHT22;12054;53.662;10.126;2023-07-13T03:45:18;17.10;99.90
23748;DHT22;12054;53.662;10.126;2023-07-13T03:47:44;17.00;99.90
23748;DHT22;12054;53.662;10.126;2023-07-13T03:50:10;17.00;99.90
23748;DHT22;12054;53.662;10.126;2023-07-13T03:52:36;17.00;99.90
23748;DHT22;12054;53.662;10.126;2023-07-13T03:55:01;17.00;99.90
23748;DHT22;12054;53.662;10.126;2023-07-13T03:57:27;17.00;99.90
23748;DHT22;12054;53.662;10.126;2023-07-13T03:59:52;16.90;99.90
23748;DHT22;12054;53.662;10.126;2023-07-13T04:02:18;16.90;99.90
23748;DHT22;12054;53.662;10.126;2023-07-13T04:04:43;16.90;99.90
23748;DHT22;12054;53.662;10.126;2023-07-13T04:07:09;16.90;99.90
23748;DHT22;12054;53.662;10.126;2023-07-13T04:09:35;16.90;99.90
23748;DHT22;12054;53.662;10.126;2023-07-13T04:12:01;16.90;99.90
23748;DHT22;12054;53.662;10.126;2023-07-13T04:14:27;16.90;99.90
23748;DHT22;12054;53.662;10.126;2023-07-13T04:16:52;16.80;99.90
23748;DHT22;12054;53.662;10.126;2023-07-13T04:19:19;16.80;99.90
23748;DHT22;12054;53.662;10.126;2023-07-13T04:21:45;16.80;99.90
23748;DHT22;12054;53.662;10.126;2023-07-13T04:24:10;16.80;99.90
23748;DHT22;12054;53.662;10.126;2023-07-13T04:26:36;16.80;99.90
23748;DHT22;12054;53.662;10.126;2023-07-13T04:29:04;16.80;99.90
23748;DHT22;12054;53.662;10.126;2023-07-13T04:31:30;16.80;99.90
23748;DHT22;12054;53.662;10.126;2023-07-13T04:33:55;16.80;99.90
23748;DHT22;12054;53.662;10.126;2023-07-13T04:36:21;16.80;99.90
23748;DHT22;12054;53.662;10.126;2023-07-13T04:38:46;16.80;99.90
23748;DHT22;12054;53.662;10.126;2023-07-13T04:41:13;16.80;99.90
23748;DHT22;12054;53.662;10.126;2023-07-13T04:43:39;16.80;99.90
23748;DHT22;12054;53.662;10.126;2023-07-13T04:46:07;16.80;99.90
23748;DHT22;12054;53.662;10.126;2023-07-13T04:48:33;16.80;99.90
23748;DHT22;12054;53.662;10.126;2023-07-13T04:50:59;16.80;99.90
23748;DHT22;12054;53.662;10.126;2023-07-13T04:53:26;16.80;99.90
23748;DHT22;12054;53.662;10.126;2023-07-13T04:55:52;16.80;99.90
23748;DHT22;12054;53.662;10.126;2023-07-13T04:58:17;16.80;99.90
23748;DHT22;12054;53.662;10.126;2023-07-13T05:00:43;16.80;99.90
23748;DHT22;12054;53.662;10.126;2023-07-13T05:03:08;16.90;99.90
23748;DHT22;12054;53.662;10.126;2023-07-13T05:05:34;16.90;99.90
23748;DHT22;12054;53.662;10.126;2023-07-13T05:08:00;16.90;99.90
23748;DHT22;12054;53.662;10.126;2023-07-13T05:10:26;16.90;99.90
23748;DHT22;12054;53.662;10.126;2023-07-13T05:12:51;16.90;99.90
23748;DHT22;12054;53.662;10.126;2023-07-13T05:15:17;16.90;99.90
23748;DHT22;12054;53.662;10.126;2023-07-13T05:17:49;17.00;99.90
23748;DHT22;12054;53.662;10.126;2023-07-13T05:20:16;17.00;99.90
23748;DHT22;12054;53.662;10.126;2023-07-13T05:22:43;17.00;99.90
23748;DHT22;12054;53.662;10.126;2023-07-13T05:25:08;17.00;99.90
23748;DHT22;12054;53.662;10.126;2023-07-13T05:27:34;17.00;99.90
23748;DHT22;12054;53.662;10.126;2023-07-13T05:30:00;17.00;99.90
23748;DHT22;12054;53.662;10.126;2023-07-13T05:32:26;17.00;99.90
23748;DHT22;12054;53.662;10.126;2023-07-13T05:34:52;17.10;99.90
23748;DHT22;12054;53.662;10.126;2023-07-13T05:37:18;17.10;99.90
23748;DHT22;12054;53.662;10.126;2023-07-13T05:39:43;17.10;99.90
23748;DHT22;12054;53.662;10.126;2023-07-13T05:42:09;17.10;99.90
23748;DHT22;12054;53.662;10.126;2023-07-13T05:44:35;17.20;99.90
23748;DHT22;12054;53.662;10.126;2023-07-13T05:47:00;17.20;99.90
23748;DHT22;12054;53.662;10.126;2023-07-13T05:49:26;17.30;99.90
23748;DHT22;12054;53.662;10.126;2023-07-13T05:51:51;17.30;99.90
23748;DHT22;12054;53.662;10.126;2023-07-13T05:54:17;17.30;99.90
23748;DHT22;12054;53.662;10.126;2023-07-13T05:56:42;17.40;99.90
23748;DHT22;12054;53.662;10.126;2023-07-13T05:59:07;17.40;99.90
23748;DHT22;12054;53.662;10.126;2023-07-13T06:01:33;17.40;99.90
23748;DHT22;12054;53.662;10.126;2023-07-13T06:03:59;17.40;99.90
23748;DHT22;12054;53.662;10.126;2023-07-13T06:06:24;17.40;99.90
23748;DHT22;12054;53.662;10.126;2023-07-13T06:08:50;17.40;99.90
23748;DHT22;12054;53.662;10.126;2023-07-13T06:11:24;17.40;99.90
23748;DHT22;12054;53.662;10.126;2023-07-13T06:13:49;17.40;99.90
23748;DHT22;12054;53.662;10.126;2023-07-13T06:16:16;17.40;99.90
23748;DHT22;12054;53.662;10.126;2023-07-13T06:18:42;17.50;99.90
23748;DHT22;12054;53.662;10.126;2023-07-13T06:21:13;17.50;99.90
23748;DHT22;12054;53.662;10.126;2023-07-13T06:23:39;17.50;99.90
23748;DHT22;12054;53.662;10.126;2023-07-13T06:26:05;17.50;99.90
23748;DHT22;12054;53.662;10.126;2023-07-13T06:28:31;17.50;99.90
23748;DHT22;12054;53.662;10.126;2023-07-13T06:30:58;17.50;99.90
23748;DHT22;12054;53.662;10.126;2023-07-13T06:33:25;17.50;99.90
23748;DHT22;12054;53.662;10.126;2023-07-13T06:35:50;17.50;99.90
23748;DHT22;12054;53.662;10.126;2023-07-13T06:38:16;17.60;99.90
23748;DHT22;12054;53.662;10.126;2023-07-13T06:40:41;17.60;99.90
23748;DHT22;12054;53.662;10.126;2023-07-13T06:43:07;17.60;99.90
23748;DHT22;12054;53.662;10.126;2023-07-13T06:45:39;17.60;99.90
23748;DHT22;12054;53.662;10.126;2023-07-13T06:48:05;17.60;99.90
23748;DHT22;12054;53.662;10.126;2023-07-13T06:50:31;17.70;99.90
23748;DHT22;12054;53.662;10.126;2023-07-13T06:52:56;17.70;99.90
23748;DHT22;12054;53.662;10.126;2023-07-13T06:55:22;17.70;99.90
23748;DHT22;12054;53.662;10.126;2023-07-13T06:57:47;17.80;99.90
23748;DHT22;12054;53.662;10.126;2023-07-13T07:00:13;17.80;99.90
23748;DHT22;12054;53.662;10.126;2023-07-13T07:02:39;17.80;99.90
23748;DHT22;12054;53.662;10.126;2023-07-13T07:05:05;17.90;99.90
23748;DHT22;12054;53.662;10.126;2023-07-13T07:07:30;17.90;99.90
23748;DHT22;12054;53.662;10.126;2023-07-13T07:09:56;17.90;99.90
23748;DHT22;12054;53.662;10.126;2023-07-13T07:12:21;18.00;99.90
23748;DHT22;12054;53.662;10.126;2023-07-13T07:14:47;18.00;99.90
23748;DHT22;12054;53.662;10.126;2023-07-13T07:17:12;18.10;99.90
23748;DHT22;12054;53.662;10.126;2023-07-13T07:19:38;18.10;99.90
23748;DHT22;12054;53.662;10.126;2023-07-13T07:22:04;18.20;99.90
23748;DHT22;12054;53.662;10.126;2023-07-13T07:24:29;18.30;99.90
23748;DHT22;12054;53.662;10.126;2023-07-13T07:26:55;18.40;99.90
23748;DHT22;12054;53.662;10.126;2023-07-13T07:29:21;18.50;99.90
23748;DHT22;12054;53.662;10.126;2023-07-13T07:31:47;18.60;99.90
23748;DHT22;12054;53.662;10.126;2023-07-13T07:34:13;18.70;99.90
23748;DHT22;12054;53.662;10.126;2023-07-13T07:36:38;18.80;99.90
23748;DHT22;12054;53.662;10.126;2023-07-13T07:39:04;19.10;99.90
23748;DHT22;12054;53.662;10.126;2023-07-13T07:41:30;19.20;99.90
23748;DHT22;12054;53.662;10.126;2023-07-13T07:43:55;19.40;99.90
23748;DHT22;12054;53.662;10.126;2023-07-13T07:46:21;19.50;99.90
23748;DHT22;12054;53.662;10.126;2023-07-13T07:48:46;19.70;99.90
23748;DHT22;12054;53.662;10.126;2023-07-13T07:51:12;19.90;99.90
23748;DHT22;12054;53.662;10.126;2023-07-13T07:53:37;20.00;99.90
23748;DHT22;12054;53.662;10.126;2023-07-13T07:56:03;20.20;99.90
23748;DHT22;12054;53.662;10.126;2023-07-13T07:58:29;20.30;99.90
23748;DHT22;12054;53.662;10.126;2023-07-13T08:01:01;20.40;99.90
23748;DHT22;12054;53.662;10.126;2023-07-13T08:03:26;20.50;99.90
23748;DHT22;12054;53.662;10.126;2023-07-13T08:05:55;20.70;99.90
23748;DHT22;12054;53.662;10.126;2023-07-13T08:08:20;20.80;99.90
23748;DHT22;12054;53.662;10.126;2023-07-13T08:10:46;20.90;99.90
23748;DHT22;12054;53.662;10.126;2023-07-13T08:13:11;20.90;99.90
23748;DHT22;12054;53.662;10.126;2023-07-13T08:15:37;21.00;99.90
23748;DHT22;12054;53.662;10.126;2023-07-13T08:18:02;21.10;99.90
23748;DHT22;12054;53.662;10.126;2023-07-13T08:20:28;21.10;99.90
23748;DHT22;12054;53.662;10.126;2023-07-13T08:22:54;21.20;99.90
23748;DHT22;12054;53.662;10.126;2023-07-13T08:25:19;21.30;99.90
23748;DHT22;12054;53.662;10.126;2023-07-13T08:27:46;21.30;99.90
23748;DHT22;12054;53.662;10.126;2023-07-13T08:30:12;21.40;99.90
23748;DHT22;12054;53.662;10.126;2023-07-13T08:32:37;21.50;99.90
23748;DHT22;12054;53.662;10.126;2023-07-13T08:35:04;21.50;99.90
23748;DHT22;12054;53.662;10.126;2023-07-13T08:37:30;21.60;99.90
23748;DHT22;12054;53.662;10.126;2023-07-13T08:39:55;21.60;99.90
23748;DHT22;12054;53.662;10.126;2023-07-13T08:42:36;21.70;99.90
23748;DHT22;12054;53.662;10.126;2023-07-13T08:47:39;21.80;99.90
23748;DHT22;12054;53.662;10.126;2023-07-13T08:50:11;21.80;99.90
23748;DHT22;12054;53.662;10.126;2023-07-13T08:52:40;21.80;99.90
23748;DHT22;12054;53.662;10.126;2023-07-13T08:55:26;21.80;99.90
23748;DHT22;12054;53.662;10.126;2023-07-13T08:57:59;21.80;99.90
23748;DHT22;12054;53.662;10.126;2023-07-13T09:00:34;21.80;99.90
23748;DHT22;12054;53.662;10.126;2023-07-13T09:03:03;21.90;99.90
23748;DHT22;12054;53.662;10.126;2023-07-13T09:05:36;21.90;99.90
23748;DHT22;12054;53.662;10.126;2023-07-13T09:08:25;21.90;99.90
23748;DHT22;12054;53.662;10.126;2023-07-13T09:10:53;22.00;99.90
23748;DHT22;12054;53.662;10.126;2023-07-13T09:13:42;22.10;99.90
23748;DHT22;12054;53.662;10.126;2023-07-13T09:16:09;22.20;99.90
23748;DHT22;12054;53.662;10.126;2023-07-13T09:18:42;22.30;99.90
23748;DHT22;12054;53.662;10.126;2023-07-13T09:21:18;22.40;99.90
23748;DHT22;12054;53.662;10.126;2023-07-13T09:23:47;22.50;99.90
23748;DHT22;12054;53.662;10.126;2023-07-13T09:26:14;22.40;99.90
23748;DHT22;12054;53.662;10.126;2023-07-13T09:28:43;22.50;99.90
23748;DHT22;12054;53.662;10.126;2023-07-13T09:31:15;22.50;99.90
23748;DHT22;12054;53.662;10.126;2023-07-13T09:33:42;22.60;99.90
23748;DHT22;12054;53.662;10.126;2023-07-13T09:36:22;22.60;99.90
23748;DHT22;12054;53.662;10.126;2023-07-13T09:38:56;22.80;99.90
23748;DHT22;12054;53.662;10.126;2023-07-13T09:46:38;23.10;99.90
23748;DHT22;12054;53.662;10.126;2023-07-13T09:49:03;23.20;99.90
23748;DHT22;12054;53.662;10.126;2023-07-13T09:51:29;23.30;99.90
23748;DHT22;12054;53.662;10.126;2023-07-13T09:53:55;23.30;99.90
23748;DHT22;12054;53.662;10.126;2023-07-13T09:56:27;23.40;99.90
23748;DHT22;12054;53.662;10.126;2023-07-13T09:58:54;23.50;99.90
23748;DHT22;12054;53.662;10.126;2023-07-13T10:01:37;23.60;99.90
23748;DHT22;12054;53.662;10.126;2023-07-13T10:04:11;23.60;99.90
23748;DHT22;12054;53.662;10.126;2023-07-13T10:06:38;23.60;99.90
23748;DHT22;12054;53.662;10.126;2023-07-13T10:09:07;23.60;99.90
23748;DHT22;12054;53.662;10.126;2023-07-13T10:11:35;23.60;99.90
23748;DHT22;12054;53.662;10.126;2023-07-13T10:14:09;23.70;99.90
23748;DHT22;12054;53.662;10.126;2023-07-13T10:16:36;23.80;99.90
23748;DHT22;12054;53.662;10.126;2023-07-13T10:19:11;23.80;99.90
23748;DHT22;12054;53.662;10.126;2023-07-13T10:21:56;23.90;99.90
23748;DHT22;12054;53.662;10.126;2023-07-13T10:24:26;23.90;99.90
23748;DHT22;12054;53.662;10.126;2023-07-13T10:27:01;24.00;99.90
23748;DHT22;12054;53.662;10.126;2023-07-13T10:29:34;24.00;99.90
23748;DHT22;12054;53.662;10.126;2023-07-13T10:32:01;23.90;99.90
23748;DHT22;12054;53.662;10.126;2023-07-13T10:34:26;23.90;99.90
23748;DHT22;12054;53.662;10.126;2023-07-13T10:36:53;24.00;99.90
23748;DHT22;12054;53.662;10.126;2023-07-13T10:39:27;24.00;99.90
23748;DHT22;12054;53.662;10.126;2023-07-13T10:42:00;24.10;99.90
23748;DHT22;12054;53.662;10.126;2023-07-13T10:44:30;24.10;99.90
23748;DHT22;12054;53.662;10.126;2023-07-13T10:46:59;24.10;99.90
23748;DHT22;12054;53.662;10.126;2023-07-13T10:49:28;24.10;99.90
23748;DHT22;12054;53.662;10.126;2023-07-13T10:51:54;24.20;99.90
23748;DHT22;12054;53.662;10.126;2023-07-13T10:57:20;24.30;99.90
23748;DHT22;12054;53.662;10.126;2023-07-13T11:02:30;24.30;99.10
23748;DHT22;12054;53.662;10.126;2023-07-13T11:04:57;24.40;99.10
23748;DHT22;12054;53.662;10.126;2023-07-13T11:09:53;24.50;98.80
23748;DHT22;12054;53.662;10.126;2023-07-13T11:17:34;24.50;98.30
23748;DHT22;12054;53.662;10.126;2023-07-13T11:22:53;24.60;97.80
23748;DHT22;12054;53.662;10.126;2023-07-13T11:25:33;24.50;97.80
23748;DHT22;12054;53.662;10.126;2023-07-13T11:28:17;24.50;97.60
23748;DHT22;12054;53.662;10.126;2023-07-13T11:31:01;24.50;97.50
23748;DHT22;12054;53.662;10.126;2023-07-13T11:36:16;24.50;98.10
23748;DHT22;12054;53.662;10.126;2023-07-13T11:39:05;24.60;97.60
23748;DHT22;12054;53.662;10.126;2023-07-13T11:41:37;24.60;97.10
23748;DHT22;12054;53.662;10.126;2023-07-13T11:44:11;24.60;97.20
23748;DHT22;12054;53.662;10.126;2023-07-13T11:46:37;24.60;97.60
23748;DHT22;12054;53.662;10.126;2023-07-13T11:49:05;24.60;98.00
23748;DHT22;12054;53.662;10.126;2023-07-13T11:51:34;24.60;98.40
23748;DHT22;12054;53.662;10.126;2023-07-13T11:54:20;24.60;98.50
23748;DHT22;12054;53.662;10.126;2023-07-13T11:56:46;24.60;98.50
23748;DHT22;12054;53.662;10.126;2023-07-13T11:59:13;24.60;98.50
23748;DHT22;12054;53.662;10.126;2023-07-13T12:01:44;24.60;98.60
23748;DHT22;12054;53.662;10.126;2023-07-13T12:04:21;24.70;98.50
23748;DHT22;12054;53.662;10.126;2023-07-13T12:06:56;24.80;98.30
23748;DHT22;12054;53.662;10.126;2023-07-13T12:09:26;24.80;97.70
23748;DHT22;12054;53.662;10.126;2023-07-13T12:11:52;24.80;97.40
23748;DHT22;12054;53.662;10.126;2023-07-13T12:14:18;24.90;97.50
23748;DHT22;12054;53.662;10.126;2023-07-13T12:16:46;24.90;97.70
23748;DHT22;12054;53.662;10.126;2023-07-13T12:19:18;24.80;97.80
23748;DHT22;12054;53.662;10.126;2023-07-13T12:21:45;24.80;97.70
23748;DHT22;12054;53.662;10.126;2023-07-13T12:24:20;24.70;97.60
23748;DHT22;12054;53.662;10.126;2023-07-13T12:27:02;24.60;97.70
23748;DHT22;12054;53.662;10.126;2023-07-13T12:29:32;24.40;98.00
23748;DHT22;12054;53.662;10.126;2023-07-13T12:31:57;24.20;98.60
23748;DHT22;12054;53.662;10.126;2023-07-13T12:34:25;24.10;99.20
23748;DHT22;12054;53.662;10.126;2023-07-13T12:36:53;24.10;99.90
23748;DHT22;12054;53.662;10.126;2023-07-13T12:39:23;24.00;99.90
23748;DHT22;12054;53.662;10.126;2023-07-13T12:41:50;23.90;99.90
23748;DHT22;12054;53.662;10.126;2023-07-13T12:44:18;23.80;99.90
23748;DHT22;12054;53.662;10.126;2023-07-13T12:47:03;23.70;99.90
23748;DHT22;12054;53.662;10.126;2023-07-13T12:49:31;23.70;99.90
23748;DHT22;12054;53.662;10.126;2023-07-13T12:52:01;23.70;99.90
23748;DHT22;12054;53.662;10.126;2023-07-13T12:54:32;23.70;99.90
23748;DHT22;12054;53.662;10.126;2023-07-13T12:56:59;23.60;99.90
23748;DHT22;12054;53.662;10.126;2023-07-13T12:59:29;23.50;99.90
23748;DHT22;12054;53.662;10.126;2023-07-13T13:01:56;23.50;99.90
23748;DHT22;12054;53.662;10.126;2023-07-13T13:04:22;23.50;99.90
23748;DHT22;12054;53.662;10.126;2023-07-13T13:06:49;23.50;99.90
23748;DHT22;12054;53.662;10.126;2023-07-13T13:09:16;23.50;99.90
23748;DHT22;12054;53.662;10.126;2023-07-13T13:11:42;23.50;99.90
23748;DHT22;12054;53.662;10.126;2023-07-13T13:14:08;23.50;99.90
23748;DHT22;12054;53.662;10.126;2023-07-13T13:16:47;23.50;99.90
23748;DHT22;12054;53.662;10.126;2023-07-13T13:19:29;23.40;99.90
23748;DHT22;12054;53.662;10.126;2023-07-13T13:21:55;23.30;99.90
23748;DHT22;12054;53.662;10.126;2023-07-13T13:24:26;23.20;99.90
23748;DHT22;12054;53.662;10.126;2023-07-13T13:26:53;23.20;99.90
23748;DHT22;12054;53.662;10.126;2023-07-13T13:29:22;23.10;99.90
23748;DHT22;12054;53.662;10.126;2023-07-13T13:31:52;23.00;99.90
23748;DHT22;12054;53.662;10.126;2023-07-13T13:34:18;23.00;99.90
23748;DHT22;12054;53.662;10.126;2023-07-13T13:36:45;23.10;99.90
23748;DHT22;12054;53.662;10.126;2023-07-13T13:39:28;23.10;99.90
23748;DHT22;12054;53.662;10.126;2023-07-13T13:41:55;23.10;99.90
23748;DHT22;12054;53.662;10.126;2023-07-13T13:44:21;23.10;99.90
23748;DHT22;12054;53.662;10.126;2023-07-13T13:46:56;23.10;99.90
23748;DHT22;12054;53.662;10.126;2023-07-13T13:49:25;23.10;99.90
23748;DHT22;12054;53.662;10.126;2023-07-13T13:51:52;23.10;99.90
23748;DHT22;12054;53.662;10.126;2023-07-13T13:54:21;23.00;99.90
23748;DHT22;12054;53.662;10.126;2023-07-13T13:56:49;23.00;99.90
23748;DHT22;12054;53.662;10.126;2023-07-13T13:59:16;23.00;99.90
23748;DHT22;12054;53.662;10.126;2023-07-13T14:01:44;22.90;99.90
23748;DHT22;12054;53.662;10.126;2023-07-13T14:04:16;22.90;99.90
23748;DHT22;12054;53.662;10.126;2023-07-13T14:06:43;22.90;99.90
23748;DHT22;12054;53.662;10.126;2023-07-13T14:09:16;22.80;99.90
23748;DHT22;12054;53.662;10.126;2023-07-13T14:11:43;22.80;99.90
23748;DHT22;12054;53.662;10.126;2023-07-13T14:14:14;22.80;99.90
23748;DHT22;12054;53.662;10.126;2023-07-13T14:16:41;22.80;99.90
23748;DHT22;12054;53.662;10.126;2023-07-13T14:19:10;22.70;99.90
23748;DHT22;12054;53.662;10.126;2023-07-13T14:21:36;22.70;99.90
23748;DHT22;12054;53.662;10.126;2023-07-13T14:24:02;22.60;99.90
23748;DHT22;12054;53.662;10.126;2023-07-13T14:26:27;22.60;99.90
23748;DHT22;12054;53.662;10.126;2023-07-13T14:28:55;22.60;99.90
23748;DHT22;12054;53.662;10.126;2023-07-13T14:31:23;22.60;99.90
23748;DHT22;12054;53.662;10.126;2023-07-13T14:33:49;22.70;99.90
23748;DHT22;12054;53.662;10.126;2023-07-13T14:36:34;22.70;99.90
23748;DHT22;12054;53.662;10.126;2023-07-13T14:39:14;22.70;99.90
23748;DHT22;12054;53.662;10.126;2023-07-13T14:41:42;22.70;99.90
23748;DHT22;12054;53.662;10.126;2023-07-13T14:44:14;22.60;99.90
23748;DHT22;12054;53.662;10.126;2023-07-13T14:46:40;22.60;99.90
23748;DHT22;12054;53.662;10.126;2023-07-13T14:49:30;22.50;99.90
23748;DHT22;12054;53.662;10.126;2023-07-13T14:51:59;22.50;99.90
23748;DHT22;12054;53.662;10.126;2023-07-13T14:54:25;22.50;99.90
23748;DHT22;12054;53.662;10.126;2023-07-13T14:56:52;22.50;99.90
23748;DHT22;12054;53.662;10.126;2023-07-13T14:59:18;22.50;99.90
23748;DHT22;12054;53.662;10.126;2023-07-13T15:01:47;22.50;99.90
23748;DHT22;12054;53.662;10.126;2023-07-13T15:04:14;22.50;99.90
23748;DHT22;12054;53.662;10.126;2023-07-13T15:06:59;22.40;99.90
23748;DHT22;12054;53.662;10.126;2023-07-13T15:09:29;22.40;99.90
23748;DHT22;12054;53.662;10.126;2023-07-13T15:11:56;22.30;99.90
23748;DHT22;12054;53.662;10.126;2023-07-13T15:14:22;22.30;99.90
23748;DHT22;12054;53.662;10.126;2023-07-13T15:17:25;22.30;99.90
23748;DHT22;12054;53.662;10.126;2023-07-13T15:20:00;22.20;99.90
23748;DHT22;12054;53.662;10.126;2023-07-13T15:22:27;22.30;99.90
23748;DHT22;12054;53.662;10.126;2023-07-13T15:24:52;22.30;99.90
23748;DHT22;12054;53.662;10.126;2023-07-13T15:27:18;22.30;99.90
23748;DHT22;12054;53.662;10.126;2023-07-13T15:29:43;22.30;99.90
23748;DHT22;12054;53.662;10.126;2023-07-13T15:32:14;22.30;99.90
23748;DHT22;12054;53.662;10.126;2023-07-13T15:34:39;22.40;99.90
23748;DHT22;12054;53.662;10.126;2023-07-13T15:37:17;22.40;99.90
23748;DHT22;12054;53.662;10.126;2023-07-13T15:39:45;22.40;99.90
23748;DHT22;12054;53.662;10.126;2023-07-13T15:42:16;22.40;99.90
23748;DHT22;12054;53.662;10.126;2023-07-13T15:44:42;22.40;99.90
23748;DHT22;12054;53.662;10.126;2023-07-13T15:47:11;22.40;99.90